Ravenwood, South Carolina
Current Conditions -  °F | °C
As of 10:14 AM on Wednesday 26 Nov 2014 (Local Time) from KCUB Reporting Station
Light Rain Light Rain  
Wind Chill: 47°   Ceiling: 1400
Heat Index: 49°   Visibility: 5mi
Dew Point: 46°   Wind: 6mph
Humidity: 90%   Direction: 300°WNW
Pressure: 30.04"   Gusts: NA
Location:  34.025°N, 80.9562°W
Report Text: KCUB 261514Z AUTO 30005KT 5SM -RA BR SCT007 BKN014 OVC024 09/08 A3004 RMK AO2 P0004 T00940078
Loading
Personal Weather Stations






























Interactive Weather Map New forecast layout! Learn more

10-Day Weather Forecast

Advertisements
Track Severe Weather on mobile